SVR011 USSS-USTR
Flight info
| Callsign | SVR011 |
|---|---|
| Flight time | 0h 18m |
| Altitude | 21000 |
| Route | K0676F170 ANATU6B ANATU P135 GIBUL P983 GINPA GINPA2L |
| Aircraft | A320/M-SDE3FGHIRWY/LB1 |
Departure
| Time | 2026-04-30 19:32 |
|---|---|
| Airport | Koltsovo Airport (USSS) |
Arrival
| Time | 2026-04-30 19:50 |
|---|---|
| Airport | Roshchino International Airport (USTR) |
| Time | Latitude | Longitude | Altitude | Speed | Heading |
|---|---|---|---|---|---|
| 2026-04-30 19:13 | 56.74914 | 60.80347 | 776 ft | 0 kts | 0° |
| 2026-04-30 19:24 | 56.74900 | 60.80347 | 776 ft | 2 kts | 359° |
| 2026-04-30 19:25 | 56.74855 | 60.80372 | 776 ft | 2 kts | 275° |
| 2026-04-30 19:26 | 56.74854 | 60.80383 | 776 ft | 0 kts | 272° |
| 2026-04-30 19:26 | 56.74855 | 60.80351 | 777 ft | 10 kts | 272° |
| 2026-04-30 19:26 | 56.74854 | 60.80133 | 776 ft | 23 kts | 269° |
| 2026-04-30 19:27 | 56.74857 | 60.79507 | 776 ft | 26 kts | 271° |
| 2026-04-30 19:27 | 56.74859 | 60.78916 | 776 ft | 23 kts | 269° |
| 2026-04-30 19:28 | 56.74854 | 60.78640 | 776 ft | 22 kts | 269° |
| 2026-04-30 19:28 | 56.74821 | 60.78150 | 776 ft | 13 kts | 201° |
| 2026-04-30 19:29 | 56.74665 | 60.78148 | 776 ft | 10 kts | 180° |
| 2026-04-30 19:29 | 56.74603 | 60.78147 | 776 ft | 10 kts | 180° |
| 2026-04-30 19:30 | 56.74345 | 60.78066 | 776 ft | 11 kts | 204° |
| 2026-04-30 19:30 | 56.74229 | 60.78032 | 776 ft | 7 kts | 113° |
| 2026-04-30 19:31 | 56.74227 | 60.78063 | 776 ft | 0 kts | 93° |
| 2026-04-30 19:31 | 56.74225 | 60.78230 | 776 ft | 44 kts | 92° |
| 2026-04-30 19:31 | 56.74113 | 60.80930 | 778 ft | 163 kts | 94° |
| 2026-04-30 19:32 | 56.74009 | 60.83063 | 1326 ft | 168 kts | 93° |
| 2026-04-30 19:32 | 56.73916 | 60.85234 | 1985 ft | 174 kts | 93° |
| 2026-04-30 19:32 | 56.73827 | 60.87481 | 2544 ft | 182 kts | 93° |
| 2026-04-30 19:32 | 56.73742 | 60.89793 | 3149 ft | 185 kts | 94° |
| 2026-04-30 19:33 | 56.73655 | 60.92146 | 3761 ft | 187 kts | 94° |
| 2026-04-30 19:33 | 56.73564 | 60.94519 | 4382 ft | 189 kts | 94° |
| 2026-04-30 19:33 | 56.73472 | 60.96915 | 5002 ft | 191 kts | 94° |
| 2026-04-30 19:33 | 56.73556 | 60.99291 | 5565 ft | 194 kts | 72° |
| 2026-04-30 19:34 | 56.74289 | 61.01350 | 6150 ft | 198 kts | 41° |
| 2026-04-30 19:34 | 56.75525 | 61.02445 | 6715 ft | 203 kts | 10° |
| 2026-04-30 19:34 | 56.78045 | 61.00555 | 7802 ft | 210 kts | 303° |
| 2026-04-30 19:35 | 56.78749 | 60.98216 | 8363 ft | 211 kts | 296° |
| 2026-04-30 19:35 | 56.79422 | 60.95834 | 8954 ft | 212 kts | 296° |
| 2026-04-30 19:35 | 56.80104 | 60.93437 | 9549 ft | 214 kts | 299° |
| 2026-04-30 19:35 | 56.81136 | 60.91503 | 10097 ft | 218 kts | 331° |
| 2026-04-30 19:36 | 56.82603 | 60.90870 | 10428 ft | 232 kts | 5° |
| 2026-04-30 19:36 | 56.84200 | 60.91792 | 10562 ft | 255 kts | 24° |
| 2026-04-30 19:36 | 56.87720 | 60.94763 | 11043 ft | 302 kts | 33° |
| 2026-04-30 19:37 | 56.89311 | 60.97449 | 11269 ft | 324 kts | 56° |
| 2026-04-30 19:37 | 56.90370 | 61.01219 | 11485 ft | 345 kts | 69° |
| 2026-04-30 19:37 | 56.91929 | 61.07971 | 12352 ft | 361 kts | 69° |
| 2026-04-30 19:37 | 56.96046 | 61.25433 | 14877 ft | 384 kts | 69° |
| 2026-04-30 19:38 | 57.00426 | 61.43790 | 17253 ft | 401 kts | 69° |
| 2026-04-30 19:38 | 57.04872 | 61.62782 | 19374 ft | 419 kts | 70° |
| 2026-04-30 19:38 | 57.09544 | 61.82911 | 21196 ft | 439 kts | 70° |
| 2026-04-30 19:38 | 57.14171 | 62.04127 | 21225 ft | 446 kts | 78° |
| 2026-04-30 19:39 | 57.17552 | 62.26063 | 21261 ft | 448 kts | 78° |
| 2026-04-30 19:39 | 57.20113 | 62.42689 | 21088 ft | 438 kts | 78° |
| 2026-04-30 19:39 | 57.20949 | 62.48141 | 21120 ft | 444 kts | 78° |
| 2026-04-30 19:39 | 57.21785 | 62.53627 | 21117 ft | 445 kts | 78° |
| 2026-04-30 19:40 | 57.22609 | 62.59066 | 21119 ft | 446 kts | 78° |
| 2026-04-30 19:40 | 57.23442 | 62.64562 | 21117 ft | 446 kts | 78° |
| 2026-04-30 19:40 | 57.25306 | 62.76921 | 21115 ft | 445 kts | 78° |
| 2026-04-30 19:40 | 57.27721 | 62.93146 | 21123 ft | 445 kts | 79° |
| 2026-04-30 19:41 | 57.28585 | 62.98973 | 20957 ft | 437 kts | 79° |
| 2026-04-30 19:41 | 57.31679 | 63.19954 | 19785 ft | 417 kts | 79° |
| 2026-04-30 19:41 | 57.34669 | 63.40694 | 17389 ft | 416 kts | 78° |
| 2026-04-30 19:41 | 57.37582 | 63.61015 | 15359 ft | 403 kts | 78° |
| 2026-04-30 19:42 | 57.39068 | 63.80522 | 14118 ft | 367 kts | 105° |
| 2026-04-30 19:42 | 57.36514 | 63.98364 | 12558 ft | 353 kts | 108° |
| 2026-04-30 19:42 | 57.34128 | 64.15365 | 11027 ft | 336 kts | 108° |
| 2026-04-30 19:42 | 57.31817 | 64.31419 | 9922 ft | 305 kts | 108° |
| 2026-04-30 19:43 | 57.29708 | 64.45848 | 8974 ft | 284 kts | 108° |
| 2026-04-30 19:43 | 57.26562 | 64.58869 | 8030 ft | 277 kts | 123° |
| 2026-04-30 19:43 | 57.22638 | 64.70911 | 7123 ft | 271 kts | 122° |
| 2026-04-30 19:44 | 57.18473 | 64.83651 | 5874 ft | 265 kts | 122° |
| 2026-04-30 19:44 | 57.17532 | 64.86506 | 5448 ft | 264 kts | 122° |
| 2026-04-30 19:44 | 57.16576 | 64.89407 | 4954 ft | 266 kts | 122° |
| 2026-04-30 19:44 | 57.15611 | 64.92339 | 4424 ft | 268 kts | 121° |
| 2026-04-30 19:45 | 57.14619 | 64.95258 | 3898 ft | 270 kts | 127° |
| 2026-04-30 19:45 | 57.13319 | 64.97747 | 3392 ft | 270 kts | 137° |
| 2026-04-30 19:45 | 57.11927 | 65.00087 | 2944 ft | 270 kts | 137° |
| 2026-04-30 19:45 | 57.10570 | 65.02365 | 2797 ft | 257 kts | 137° |
| 2026-04-30 19:46 | 57.09305 | 65.04488 | 2654 ft | 235 kts | 137° |
| 2026-04-30 19:46 | 57.08215 | 65.06556 | 2523 ft | 217 kts | 119° |
| 2026-04-30 19:46 | 57.07930 | 65.09148 | 2400 ft | 208 kts | 78° |
| 2026-04-30 19:46 | 57.08598 | 65.11380 | 2270 ft | 201 kts | 48° |
| 2026-04-30 19:47 | 57.09533 | 65.13228 | 2185 ft | 192 kts | 49° |
| 2026-04-30 19:47 | 57.10130 | 65.14416 | 2126 ft | 183 kts | 49° |
| 2026-04-30 19:47 | 57.11238 | 65.16636 | 1904 ft | 172 kts | 49° |
| 2026-04-30 19:47 | 57.12014 | 65.18199 | 1719 ft | 159 kts | 49° |
| 2026-04-30 19:48 | 57.12733 | 65.19647 | 1527 ft | 149 kts | 49° |
| 2026-04-30 19:48 | 57.13425 | 65.21042 | 1354 ft | 146 kts | 48° |
| 2026-04-30 19:48 | 57.14099 | 65.22416 | 1182 ft | 145 kts | 49° |
| 2026-04-30 19:48 | 57.14769 | 65.23794 | 1031 ft | 144 kts | 47° |
| 2026-04-30 19:49 | 57.15446 | 65.25131 | 825 ft | 145 kts | 47° |
| 2026-04-30 19:49 | 57.16804 | 65.27878 | 430 ft | 145 kts | 47° |
| 2026-04-30 19:49 | 57.17459 | 65.29193 | 386 ft | 126 kts | 47° |
| 2026-04-30 19:50 | 57.17959 | 65.30204 | 376 ft | 86 kts | 47° |
| 2026-04-30 19:50 | 57.18305 | 65.30898 | 362 ft | 67 kts | 48° |
| 2026-04-30 19:50 | 57.18560 | 65.31428 | 353 ft | 40 kts | 47° |
| 2026-04-30 19:50 | 57.18683 | 65.31675 | 344 ft | 16 kts | 49° |
| 2026-04-30 19:51 | 57.18694 | 65.31805 | 339 ft | 12 kts | 126° |
| 2026-04-30 19:51 | 57.18619 | 65.31929 | 333 ft | 16 kts | 141° |
| 2026-04-30 19:51 | 57.18535 | 65.32071 | 333 ft | 17 kts | 139° |
| 2026-04-30 19:51 | 57.18465 | 65.32237 | 332 ft | 16 kts | 97° |
| 2026-04-30 19:52 | 57.18467 | 65.32470 | 328 ft | 20 kts | 87° |
| 2026-04-30 19:52 | 57.18471 | 65.32729 | 328 ft | 20 kts | 88° |
| 2026-04-30 19:52 | 57.18475 | 65.32986 | 333 ft | 20 kts | 88° |
| 2026-04-30 19:52 | 57.18481 | 65.33249 | 334 ft | 20 kts | 90° |
| 2026-04-30 19:53 | 57.18409 | 65.33433 | 338 ft | 18 kts | 134° |
| 2026-04-30 19:53 | 57.18319 | 65.33602 | 339 ft | 19 kts | 135° |
| 2026-04-30 19:53 | 57.18218 | 65.33790 | 336 ft | 22 kts | 135° |
| 2026-04-30 19:53 | 57.18106 | 65.33994 | 336 ft | 24 kts | 136° |
| 2026-04-30 19:54 | 57.17992 | 65.34204 | 337 ft | 23 kts | 134° |
| 2026-04-30 19:54 | 57.17906 | 65.34368 | 348 ft | 11 kts | 133° |
| 2026-04-30 19:54 | 57.17887 | 65.34488 | 342 ft | 10 kts | 65° |
| 2026-04-30 19:54 | 57.17938 | 65.34581 | 340 ft | 10 kts | 44° |
| 2026-04-30 19:55 | 57.17984 | 65.34663 | 340 ft | 8 kts | 44° |
| 2026-04-30 19:55 | 57.18029 | 65.34684 | 339 ft | 6 kts | 341° |
| 2026-04-30 19:55 | 57.18060 | 65.34636 | 339 ft | 8 kts | 316° |
| 2026-04-30 19:55 | 57.18105 | 65.34618 | 339 ft | 6 kts | 38° |
| 2026-04-30 19:56 | 57.18121 | 65.34659 | 338 ft | 5 kts | 54° |
| 2026-04-30 19:56 | 57.18134 | 65.34693 | 336 ft | 0 kts | 54° |